TAF KCPR
KCPR 270520Z 2706/2806 22010KT P6SM SKC FM270700 VRB05KT P6SM SCT150=
METAR KCPR
WC KCPR
WS KCPR
WV KCPR